Time;durP1;ratioP1;P1;durP2;ratioP2;P2;SDS_P1;SDS_P2;PMS_P1;PMS_P2;Temp;Humidity;BMP_temperature;BMP_pressure;BME280_temperature;BME280_humidity;BME280_pressure;Samples;Min_cycle;Max_cycle;Signal;HPM_P1;HPM_P2
2023/05/23 00:01:30;;;;;;;6.47;4.82;;;13.80;99.90;;;;;;5055173;28;20443;-78
2023/05/23 00:03:57;;;;;;;8.63;3.95;;;13.80;99.90;;;;;;5055586;28;20029;-78
2023/05/23 00:06:23;;;;;;;7.47;4.95;;;13.80;99.90;;;;;;5055192;28;20039;-78
2023/05/23 00:08:49;;;;;;;8.18;5.60;;;13.70;99.90;;;;;;5054924;28;20405;-78
2023/05/23 00:11:15;;;;;;;8.38;4.95;;;13.60;99.90;;;;;;5054418;28;20499;-78
2023/05/23 00:13:41;;;;;;;7.72;5.60;;;13.70;99.90;;;;;;5072868;28;20108;-78
2023/05/23 00:16:10;;;;;;;6.22;4.80;;;13.70;99.90;;;;;;5054922;28;20070;-78
2023/05/23 00:18:39;;;;;;;5.97;5.20;;;13.70;99.90;;;;;;5055091;28;20044;-78
2023/05/23 00:21:04;;;;;;;5.93;5.30;;;13.60;99.90;;;;;;5076683;28;20500;-78
2023/05/23 00:23:32;;;;;;;8.40;5.72;;;13.60;99.90;;;;;;5058850;28;20055;-78
2023/05/23 00:25:59;;;;;;;8.73;6.03;;;13.70;99.90;;;;;;5076444;28;20020;-78
2023/05/23 00:28:25;;;;;;;8.18;5.97;;;13.60;99.90;;;;;;5076554;28;20059;-78
2023/05/23 00:30:51;;;;;;;7.68;5.97;;;13.60;99.90;;;;;;5076492;28;20074;-78
2023/05/23 00:33:20;;;;;;;7.32;5.20;;;13.60;99.90;;;;;;5076604;28;20028;-78
2023/05/23 00:35:46;;;;;;;11.95;6.40;;;13.60;99.90;;;;;;5058758;28;20082;-78
2023/05/23 00:38:13;;;;;;;8.90;5.93;;;13.60;99.90;;;;;;5076198;28;20046;-78
2023/05/23 00:40:39;;;;;;;7.90;5.25;;;13.70;99.90;;;;;;5058339;28;20245;-79
2023/05/23 00:43:05;;;;;;;7.07;5.18;;;13.70;99.90;;;;;;5058151;28;20515;-78
2023/05/23 00:45:30;;;;;;;8.13;5.45;;;13.70;99.90;;;;;;5076077;28;20055;-78
2023/05/23 00:47:58;;;;;;;8.00;5.78;;;13.60;99.90;;;;;;5057833;28;20493;-78
2023/05/23 00:50:28;;;;;;;7.93;5.32;;;13.60;99.90;;;;;;5058286;28;20021;-78
2023/05/23 00:52:54;;;;;;;6.78;4.88;;;13.60;99.90;;;;;;5058244;28;20115;-78
2023/05/23 00:55:20;;;;;;;8.68;5.18;;;13.60;99.90;;;;;;5057533;28;20021;-78
2023/05/23 00:57:46;;;;;;;9.05;5.15;;;13.50;99.90;;;;;;5076622;28;20016;-78
2023/05/23 01:00:13;;;;;;;6.43;4.93;;;13.60;99.90;;;;;;5057542;28;20028;-78
2023/05/23 01:02:44;;;;;;;10.65;4.57;;;13.50;99.90;;;;;;5057688;28;20401;-78
2023/05/23 01:05:13;;;;;;;8.15;4.80;;;13.50;99.90;;;;;;5057901;28;20029;-78
2023/05/23 01:07:40;;;;;;;6.00;4.55;;;13.40;99.90;;;;;;5057473;28;20501;-78
2023/05/23 01:10:07;;;;;;;6.95;5.22;;;13.40;99.90;;;;;;5075618;28;20078;-78
2023/05/23 01:12:53;;;;;;;10.40;4.88;;;13.40;99.90;;;;;;5075042;28;20488;-78
2023/05/23 01:15:22;;;;;;;6.20;5.05;;;13.30;99.90;;;;;;5057105;28;20029;-77
2023/05/23 01:18:00;;;;;;;8.70;5.05;;;13.20;99.90;;;;;;5057303;28;20077;-78
2023/05/23 01:20:32;;;;;;;8.73;4.90;;;13.20;99.90;;;;;;5075148;28;20404;-77
2023/05/23 01:22:59;;;;;;;8.77;4.95;;;13.20;99.90;;;;;;5057282;28;20444;-77
2023/05/23 01:25:52;;;;;;;9.98;5.05;;;13.10;99.90;;;;;;5057502;28;20078;-78
2023/05/23 01:28:20;;;;;;;8.05;5.70;;;13.00;99.90;;;;;;5056941;28;20120;-78
2023/05/23 01:30:50;;;;;;;7.18;5.32;;;13.00;99.90;;;;;;5055998;28;20443;-78
2023/05/23 01:33:17;;;;;;;8.45;5.72;;;13.00;99.90;;;;;;5057152;28;20093;-78
2023/05/23 01:35:43;;;;;;;8.55;6.15;;;13.00;99.90;;;;;;5056597;28;20055;-78
2023/05/23 01:38:09;;;;;;;6.82;5.28;;;13.00;99.90;;;;;;5057368;28;20031;-78
2023/05/23 01:40:35;;;;;;;9.23;5.38;;;13.00;99.90;;;;;;5057050;28;20020;-78
2023/05/23 01:43:01;;;;;;;7.05;5.28;;;13.00;99.90;;;;;;5057090;28;20021;-78
2023/05/23 01:45:28;;;;;;;9.10;5.65;;;13.00;99.90;;;;;;5074722;28;20128;-78
2023/05/23 01:47:55;;;;;;;9.18;5.82;;;13.00;99.90;;;;;;5074714;28;20059;-78
2023/05/23 01:50:23;;;;;;;6.65;4.57;;;13.10;99.90;;;;;;5056721;28;20024;-78
2023/05/23 01:52:49;;;;;;;9.35;5.43;;;13.10;99.90;;;;;;5074661;28;20104;-78
2023/05/23 01:55:21;;;;;;;9.00;5.32;;;13.10;99.90;;;;;;5056584;28;20021;-78
2023/05/23 01:57:50;;;;;;;6.32;4.47;;;13.00;99.90;;;;;;5082364;28;20076;-78
2023/05/23 02:00:16;;;;;;;7.53;5.45;;;13.00;99.90;;;;;;5072063;28;20067;-79
2023/05/23 02:02:42;;;;;;;7.03;5.30;;;13.00;99.90;;;;;;5064588;28;20093;-78
2023/05/23 02:05:10;;;;;;;8.55;5.82;;;13.00;99.90;;;;;;5057703;28;20415;-79
2023/05/23 02:07:36;;;;;;;8.00;5.32;;;12.90;99.90;;;;;;5075000;28;20033;-79
2023/05/23 02:10:03;;;;;;;10.00;5.55;;;12.90;99.90;;;;;;5057173;28;20115;-78
2023/05/23 02:12:29;;;;;;;7.53;5.28;;;12.90;99.90;;;;;;5056424;28;20386;-78
2023/05/23 02:14:54;;;;;;;7.43;5.88;;;12.80;99.90;;;;;;5056805;28;20128;-78
2023/05/23 02:17:21;;;;;;;7.78;5.38;;;12.70;99.90;;;;;;5074571;28;20484;-79
2023/05/23 02:19:47;;;;;;;6.90;5.05;;;12.80;99.90;;;;;;5074190;28;20103;-78
2023/05/23 02:22:13;;;;;;;8.02;5.10;;;12.70;99.90;;;;;;5056646;28;20079;-78
2023/05/23 02:24:39;;;;;;;8.35;5.78;;;12.70;99.90;;;;;;5056038;28;20028;-78
2023/05/23 02:27:05;;;;;;;7.45;5.22;;;12.70;99.90;;;;;;5055703;28;20603;-77
2023/05/23 02:29:31;;;;;;;7.50;4.68;;;12.60;99.90;;;;;;5055507;28;20033;-79
2023/05/23 02:31:57;;;;;;;7.10;4.55;;;12.60;99.90;;;;;;5055951;28;20024;-77
2023/05/23 02:34:22;;;;;;;5.80;4.50;;;12.60;99.90;;;;;;5055349;28;20363;-78
2023/05/23 02:36:48;;;;;;;5.15;4.20;;;12.50;99.90;;;;;;5055543;28;20103;-77
2023/05/23 02:39:14;;;;;;;5.68;4.82;;;12.50;99.90;;;;;;5055496;28;20017;-77
2023/05/23 02:41:39;;;;;;;9.43;4.25;;;12.40;99.90;;;;;;5072867;28;20016;-77
2023/05/23 02:44:05;;;;;;;5.47;4.32;;;12.40;99.90;;;;;;5055322;28;20039;-77
2023/05/23 02:46:31;;;;;;;9.02;4.85;;;12.40;99.90;;;;;;5073066;28;20027;-80
2023/05/23 02:48:57;;;;;;;5.18;4.50;;;12.30;99.90;;;;;;5055199;28;20093;-77
2023/05/23 02:51:22;;;;;;;6.03;4.78;;;12.40;99.90;;;;;;5073104;28;20099;-78
2023/05/23 02:53:48;;;;;;;7.63;4.32;;;12.40;99.90;;;;;;5054706;28;20086;-80
2023/05/23 02:56:14;;;;;;;6.28;4.05;;;12.30;99.90;;;;;;5054796;28;20031;-78
2023/05/23 02:58:40;;;;;;;6.55;3.97;;;12.40;99.90;;;;;;5073175;28;20073;-80
2023/05/23 03:01:07;;;;;;;6.22;4.25;;;12.30;99.90;;;;;;5055338;28;20036;-79
2023/05/23 03:03:33;;;;;;;7.30;4.90;;;12.30;99.90;;;;;;5055813;28;20016;-79
2023/05/23 03:06:05;;;;;;;5.90;4.38;;;12.30;99.90;;;;;;5073308;28;20106;-79
2023/05/23 03:08:30;;;;;;;8.23;5.13;;;12.30;99.90;;;;;;5055459;28;20031;-79
2023/05/23 03:10:56;;;;;;;5.40;4.70;;;12.20;99.90;;;;;;5072759;28;20025;-80
2023/05/23 03:13:22;;;;;;;7.30;4.82;;;12.10;99.90;;;;;;5055512;28;20029;-79
2023/05/23 03:15:47;;;;;;;8.57;5.28;;;12.20;99.90;;;;;;5055312;28;20039;-80
2023/05/23 03:18:13;;;;;;;11.48;4.90;;;12.10;99.90;;;;;;5055198;28;20254;-79
2023/05/23 03:20:39;;;;;;;6.43;4.57;;;12.10;99.90;;;;;;5073277;28;20036;-79
2023/05/23 03:23:04;;;;;;;6.10;4.70;;;12.10;99.90;;;;;;5055137;28;20026;-79
2023/05/23 03:25:30;;;;;;;7.03;5.40;;;12.20;99.90;;;;;;5073629;28;20024;-79
2023/05/23 03:27:56;;;;;;;7.18;5.43;;;12.20;99.90;;;;;;5073100;28;20111;-79
2023/05/23 03:30:21;;;;;;;8.93;5.88;;;12.20;99.90;;;;;;5055073;28;20079;-79
2023/05/23 03:32:47;;;;;;;7.30;5.30;;;12.20;99.90;;;;;;5055394;28;20039;-79
2023/05/23 03:35:12;;;;;;;8.70;5.72;;;12.20;99.90;;;;;;5055569;28;20504;-79
2023/05/23 03:37:39;;;;;;;6.63;5.40;;;12.20;99.90;;;;;;5054848;28;20028;-81
2023/05/23 03:40:06;;;;;;;6.72;4.88;;;12.20;99.90;;;;;;5054951;28;20020;-79
2023/05/23 03:42:31;;;;;;;6.40;5.13;;;12.30;99.90;;;;;;5073227;28;20389;-79
2023/05/23 03:44:57;;;;;;;6.40;4.50;;;12.40;99.90;;;;;;5073188;28;20393;-80
2023/05/23 03:47:23;;;;;;;9.13;5.47;;;12.40;99.90;;;;;;5054706;28;20032;-79
2023/05/23 03:49:49;;;;;;;5.85;4.82;;;12.40;99.90;;;;;;5072944;28;20029;-79
2023/05/23 03:52:15;;;;;;;8.27;4.40;;;12.50;99.90;;;;;;5055198;28;20033;-79
2023/05/23 03:54:40;;;;;;;6.60;5.00;;;12.50;99.90;;;;;;5075027;28;20031;-79
2023/05/23 03:57:06;;;;;;;8.73;4.95;;;12.60;99.90;;;;;;5059058;28;20021;-80
2023/05/23 03:59:32;;;;;;;5.63;4.07;;;12.50;99.90;;;;;;5058797;28;20020;-80
2023/05/23 04:01:59;;;;;;;7.72;5.10;;;12.60;99.90;;;;;;5088067;23;20040;-76
2023/05/23 04:04:26;;;;;;;10.50;5.05;;;12.60;99.90;;;;;;5077476;28;20031;-76
2023/05/23 04:06:52;;;;;;;6.28;5.10;;;12.70;99.90;;;;;;5095741;28;20082;-75
2023/05/23 04:09:17;;;;;;;8.85;5.25;;;12.70;99.90;;;;;;5095787;28;20516;-76
2023/05/23 04:11:43;;;;;;;7.72;5.43;;;12.90;99.90;;;;;;5095345;28;20485;-76
2023/05/23 04:14:09;;;;;;;11.73;5.15;;;12.90;99.90;;;;;;5095623;28;20035;-76
2023/05/23 04:16:36;;;;;;;7.68;5.75;;;13.00;99.90;;;;;;5077410;28;20081;-76
2023/05/23 04:19:03;;;;;;;7.00;5.38;;;13.00;99.90;;;;;;5077362;28;20017;-76
2023/05/23 04:21:29;;;;;;;9.90;5.50;;;13.00;99.90;;;;;;5095606;28;20054;-75
2023/05/23 04:23:55;;;;;;;8.13;5.93;;;13.00;99.90;;;;;;5095714;28;20082;-76
2023/05/23 04:26:20;;;;;;;8.80;4.85;;;13.10;99.90;;;;;;5095397;28;20020;-75
2023/05/23 04:28:47;;;;;;;7.68;5.95;;;13.10;99.90;;;;;;5095359;28;20383;-76
2023/05/23 04:31:13;;;;;;;10.13;5.60;;;13.20;99.90;;;;;;5095268;28;20097;-76
2023/05/23 04:33:39;;;;;;;6.75;5.35;;;13.20;99.90;;;;;;5095296;28;20023;-76
2023/05/23 04:36:08;;;;;;;7.40;6.07;;;13.30;99.90;;;;;;5076910;28;20028;-75
2023/05/23 04:38:34;;;;;;;7.18;5.32;;;13.30;99.90;;;;;;5095181;28;20105;-76
2023/05/23 04:41:00;;;;;;;8.63;6.05;;;13.30;99.90;;;;;;5076833;28;20221;-76
2023/05/23 04:43:28;;;;;;;9.88;6.22;;;13.30;99.90;;;;;;5076987;28;20133;-75
2023/05/23 04:45:53;;;;;;;45.03;25.83;;;13.30;99.90;;;;;;5076739;28;20028;-76
2023/05/23 04:48:20;;;;;;;13.65;10.15;;;13.40;99.90;;;;;;5094998;28;20053;-75
2023/05/23 04:50:47;;;;;;;14.50;8.48;;;13.50;99.90;;;;;;5094995;28;20023;-76
2023/05/23 04:53:13;;;;;;;10.60;8.38;;;13.60;99.90;;;;;;5077012;28;20119;-75
2023/05/23 04:55:39;;;;;;;11.07;6.75;;;13.70;99.90;;;;;;5094912;28;20095;-75
2023/05/23 04:58:04;;;;;;;7.55;6.53;;;13.70;99.90;;;;;;5076527;28;20476;-76
2023/05/23 05:00:30;;;;;;;7.15;6.43;;;13.90;99.90;;;;;;5094659;28;20028;-76
2023/05/23 05:02:55;;;;;;;6.90;5.65;;;14.00;99.90;;;;;;5076383;28;20085;-75
2023/05/23 05:05:21;;;;;;;8.70;7.00;;;14.00;99.90;;;;;;5076555;28;20028;-76
2023/05/23 05:07:47;;;;;;;8.18;7.10;;;14.20;99.90;;;;;;5094532;28;20480;-76
2023/05/23 05:10:15;;;;;;;10.45;6.53;;;14.40;99.90;;;;;;5094502;28;20093;-76
2023/05/23 05:12:50;;;;;;;8.73;7.28;;;14.60;99.90;;;;;;5076418;28;20024;-76
2023/05/23 05:15:17;;;;;;;10.15;6.72;;;14.60;99.90;;;;;;5094428;28;20032;-76
2023/05/23 05:17:43;;;;;;;15.68;6.85;;;14.60;99.90;;;;;;5076183;28;20404;-76
2023/05/23 05:20:10;;;;;;;13.20;6.90;;;14.80;99.90;;;;;;5094578;28;20087;-76
2023/05/23 05:22:39;;;;;;;10.40;6.32;;;14.80;99.90;;;;;;5094363;28;20020;-76
2023/05/23 05:25:06;;;;;;;7.70;6.18;;;14.90;99.90;;;;;;5094325;28;20484;-76
2023/05/23 05:27:32;;;;;;;7.03;5.80;;;15.10;99.90;;;;;;5094149;28;20024;-76
2023/05/23 05:30:03;;;;;;;8.55;6.25;;;15.20;99.90;;;;;;5094332;28;20069;-76
2023/05/23 05:32:30;;;;;;;6.70;5.63;;;15.20;99.90;;;;;;5094485;28;20439;-76
2023/05/23 05:34:55;;;;;;;7.72;6.00;;;15.40;99.90;;;;;;5094083;28;20499;-76
2023/05/23 05:37:21;;;;;;;9.35;6.10;;;15.60;99.90;;;;;;5093931;28;20032;-77
2023/05/23 05:39:47;;;;;;;7.78;6.05;;;15.80;99.90;;;;;;5094261;28;20024;-77
2023/05/23 05:42:12;;;;;;;8.70;5.63;;;15.90;99.90;;;;;;5094040;28;20443;-77
2023/05/23 05:44:38;;;;;;;12.48;6.18;;;16.10;99.90;;;;;;5075684;28;20035;-74
2023/05/23 05:47:04;;;;;;;7.13;5.82;;;16.20;99.90;;;;;;5094185;28;20020;-76
2023/05/23 05:49:30;;;;;;;6.78;5.88;;;16.50;99.90;;;;;;5094060;28;20073;-77
2023/05/23 05:51:55;;;;;;;15.52;5.82;;;16.70;99.90;;;;;;5095093;28;20415;-77
2023/05/23 05:54:21;;;;;;;9.80;4.97;;;16.90;99.90;;;;;;5075622;28;20020;-76
2023/05/23 05:56:47;;;;;;;6.13;5.15;;;17.10;99.90;;;;;;5075620;28;20361;-76
2023/05/23 05:59:12;;;;;;;7.13;5.35;;;17.20;99.90;;;;;;5093645;28;20362;-77
2023/05/23 06:01:38;;;;;;;7.57;5.60;;;17.30;99.90;;;;;;5075693;28;20063;-77
2023/05/23 06:04:03;;;;;;;6.30;5.20;;;17.50;99.90;;;;;;5093896;28;20024;-77
2023/05/23 06:06:30;;;;;;;10.43;6.45;;;17.60;99.90;;;;;;5075428;28;20027;-77
2023/05/23 06:08:56;;;;;;;6.45;5.35;;;17.80;99.90;;;;;;5093473;28;20023;-77
2023/05/23 06:11:21;;;;;;;8.05;5.45;;;18.00;99.90;;;;;;5093172;28;20016;-77
2023/05/23 06:13:47;;;;;;;7.30;4.80;;;18.20;99.90;;;;;;5075463;28;20115;-77
2023/05/23 06:16:14;;;;;;;6.90;5.60;;;18.40;99.90;;;;;;5092883;28;20024;-77
2023/05/23 06:18:40;;;;;;;6.20;4.38;;;18.70;99.90;;;;;;5074890;28;20488;-76
2023/05/23 06:21:05;;;;;;;6.65;4.72;;;18.90;99.90;;;;;;5093212;28;20032;-76
2023/05/23 06:23:31;;;;;;;8.52;4.50;;;18.90;99.90;;;;;;5093316;28;20036;-77
2023/05/23 06:25:58;;;;;;;8.25;5.90;;;19.10;99.90;;;;;;5093384;28;20035;-76
2023/05/23 06:28:24;;;;;;;7.28;5.43;;;19.30;99.90;;;;;;5074941;28;20103;-76
2023/05/23 06:30:49;;;;;;;8.40;4.82;;;19.30;99.90;;;;;;5074898;28;20119;-75
2023/05/23 06:33:15;;;;;;;5.90;4.78;;;19.50;99.90;;;;;;5093586;28;20046;-76
2023/05/23 06:35:41;;;;;;;9.55;5.00;;;19.60;99.90;;;;;;5075051;28;20031;-76
2023/05/23 06:38:07;;;;;;;7.82;6.18;;;19.80;99.90;;;;;;5074986;28;20020;-76
2023/05/23 06:40:33;;;;;;;7.93;4.97;;;19.80;99.90;;;;;;5075379;28;20411;-76
2023/05/23 06:42:59;;;;;;;6.05;4.68;;;20.10;99.90;;;;;;5075106;28;20472;-76
2023/05/23 06:45:24;;;;;;;6.00;5.03;;;20.40;99.90;;;;;;5074559;28;20028;-78
2023/05/23 06:47:50;;;;;;;6.05;4.40;;;20.40;99.90;;;;;;5092715;28;20123;-76
2023/05/23 06:50:18;;;;;;;6.18;4.95;;;20.40;99.90;;;;;;5092765;28;20032;-77
2023/05/23 06:52:45;;;;;;;7.03;5.40;;;20.50;99.90;;;;;;5092845;28;20059;-77
2023/05/23 06:55:16;;;;;;;6.63;5.40;;;20.60;99.90;;;;;;5092573;28;20020;-77
2023/05/23 06:57:42;;;;;;;5.68;4.78;;;20.70;99.90;;;;;;5092606;28;20043;-76
2023/05/23 07:00:09;;;;;;;8.02;5.40;;;21.00;99.90;;;;;;5092825;28;20047;-77
2023/05/23 07:02:34;;;;;;;5.68;5.07;;;21.10;99.90;;;;;;5092307;28;20075;-75
2023/05/23 07:05:00;;;;;;;7.03;4.65;;;21.20;99.90;;;;;;5074158;28;20074;-76
2023/05/23 07:07:26;;;;;;;8.85;4.63;;;21.30;99.90;;;;;;5092506;28;20103;-76
2023/05/23 07:09:52;;;;;;;5.47;4.45;;;21.40;99.90;;;;;;5074535;28;20032;-76
2023/05/23 07:12:17;;;;;;;6.75;4.30;;;21.50;99.90;;;;;;5092447;28;20045;-76
2023/05/23 07:14:43;;;;;;;7.63;4.70;;;21.70;99.90;;;;;;5092650;28;20384;-75
2023/05/23 07:17:08;;;;;;;9.40;4.38;;;21.80;99.90;;;;;;5092965;28;20491;-77
2023/05/23 07:19:34;;;;;;;6.38;4.65;;;21.80;99.90;;;;;;5074823;28;20032;-76
2023/05/23 07:22:00;;;;;;;5.88;4.28;;;21.90;99.90;;;;;;5092595;28;20051;-76
2023/05/23 07:24:25;;;;;;;5.93;4.40;;;22.10;99.90;;;;;;5074388;28;20064;-76
2023/05/23 07:26:51;;;;;;;6.70;3.70;;;22.20;99.90;;;;;;5092528;28;20459;-76
2023/05/23 07:29:17;;;;;;;6.18;3.83;;;22.30;99.90;;;;;;5073557;28;20307;-76
2023/05/23 07:31:42;;;;;;;3.95;3.47;;;22.50;99.90;;;;;;5074507;28;20114;-76
2023/05/23 07:34:08;;;;;;;4.90;4.05;;;22.80;99.90;;;;;;5074923;28;20024;-76
2023/05/23 07:36:34;;;;;;;3.90;3.50;;;23.00;99.90;;;;;;5074526;28;20392;-76
2023/05/23 07:39:00;;;;;;;4.28;3.53;;;22.90;99.90;;;;;;5074473;28;20035;-76
2023/05/23 07:41:26;;;;;;;4.40;3.70;;;23.00;99.90;;;;;;5074543;28;20111;-76
2023/05/23 07:43:52;;;;;;;4.75;3.75;;;22.90;99.90;;;;;;5092499;28;20054;-76
2023/05/23 07:46:17;;;;;;;5.90;4.63;;;23.00;99.90;;;;;;5092482;28;20028;-76
2023/05/23 07:48:44;;;;;;;4.07;3.25;;;23.00;99.90;;;;;;5092058;28;20377;-76
2023/05/23 07:51:09;;;;;;;4.85;3.97;;;23.30;99.90;;;;;;5074142;28;20051;-76
2023/05/23 07:53:38;;;;;;;5.38;4.07;;;23.60;99.90;;;;;;5092052;28;20464;-76
2023/05/23 07:56:05;;;;;;;5.70;4.60;;;23.80;99.90;;;;;;5073733;28;20386;-76
2023/05/23 07:58:30;;;;;;;4.93;4.13;;;23.80;99.00;;;;;;5073751;28;20060;-76
2023/05/23 08:00:56;;;;;;;5.57;3.70;;;24.00;99.10;;;;;;5092015;28;20055;-76
2023/05/23 08:03:23;;;;;;;4.53;3.50;;;24.10;99.40;;;;;;5092175;28;20048;-76
2023/05/23 08:05:48;;;;;;;4.45;3.13;;;24.40;97.00;;;;;;5074227;28;20028;-77
2023/05/23 08:08:15;;;;;;;3.53;2.92;;;24.60;94.60;;;;;;5093201;28;20279;-76
2023/05/23 08:10:40;;;;;;;5.07;3.40;;;24.80;92.70;;;;;;5091420;28;20150;-74
2023/05/23 08:13:08;;;;;;;5.75;3.30;;;24.90;91.60;;;;;;5073766;28;20518;-76
2023/05/23 08:15:34;;;;;;;3.85;3.25;;;25.00;91.00;;;;;;5073470;28;20045;-76
2023/05/23 08:18:00;;;;;;;4.28;2.90;;;25.00;91.10;;;;;;5073584;28;20027;-76
2023/05/23 08:20:29;;;;;;;5.18;4.03;;;25.10;92.00;;;;;;5092337;28;20027;-76
2023/05/23 08:22:59;;;;;;;6.75;3.50;;;25.00;93.10;;;;;;5091602;28;20016;-76
2023/05/23 08:25:29;;;;;;;4.88;2.83;;;24.90;92.10;;;;;;5073427;28;20119;-76
2023/05/23 08:27:59;;;;;;;7.47;3.60;;;24.90;90.00;;;;;;5093063;28;20059;-77
2023/05/23 08:30:26;;;;;;;4.40;2.63;;;24.90;91.20;;;;;;5090156;28;20054;-75
2023/05/23 08:32:52;;;;;;;3.70;3.33;;;24.90;89.80;;;;;;5091593;28;20028;-76
2023/05/23 08:35:18;;;;;;;3.45;3.03;;;25.00;90.50;;;;;;5091272;28;20400;-75
2023/05/23 08:37:45;;;;;;;4.70;3.55;;;25.10;92.00;;;;;;5091298;28;20024;-76
2023/05/23 08:40:17;;;;;;;4.07;3.22;;;25.10;89.00;;;;;;5074449;28;20044;-78
2023/05/23 08:42:42;;;;;;;5.20;3.38;;;25.10;92.00;;;;;;5095334;28;20020;-75
2023/05/23 08:45:09;;;;;;;6.40;4.22;;;25.10;92.60;;;;;;5095107;28;20126;-76
2023/05/23 08:47:39;;;;;;;7.53;3.67;;;25.10;92.50;;;;;;5094971;28;20074;-76
2023/05/23 08:50:13;;;;;;;4.82;3.65;;;25.10;92.30;;;;;;5095294;28;20111;-76
2023/05/23 08:52:56;;;;;;;6.43;3.45;;;25.20;91.90;;;;;;5094944;28;20099;-75
2023/05/23 08:55:26;;;;;;;4.90;3.65;;;25.30;91.50;;;;;;5094879;28;20021;-76
2023/05/23 08:57:53;;;;;;;5.45;3.50;;;25.30;91.50;;;;;;5094894;28;20016;-74
2023/05/23 09:00:20;;;;;;;6.13;3.50;;;25.40;91.30;;;;;;5095066;28;20016;-74
2023/05/23 09:02:46;;;;;;;3.85;3.22;;;25.40;90.70;;;;;;5094757;28;20024;-74
2023/05/23 09:05:12;;;;;;;6.10;3.95;;;25.50;90.20;;;;;;5076700;28;20024;-76
2023/05/23 09:07:38;;;;;;;6.53;3.15;;;25.40;89.60;;;;;;5094778;28;20024;-74
2023/05/23 09:10:06;;;;;;;4.45;3.45;;;25.60;89.90;;;;;;5076319;28;20028;-76
2023/05/23 09:12:35;;;;;;;5.75;3.75;;;25.80;86.90;;;;;;5076661;28;20028;-74
2023/05/23 09:15:00;;;;;;;6.90;3.47;;;25.80;85.50;;;;;;5094617;28;20065;-73
2023/05/23 09:17:26;;;;;;;3.92;3.00;;;25.80;86.60;;;;;;5094725;28;20107;-77
2023/05/23 09:19:52;;;;;;;3.90;3.17;;;25.80;87.60;;;;;;5094883;28;20485;-76
2023/05/23 09:22:27;;;;;;;4.78;3.60;;;25.90;89.60;;;;;;5094599;28;20131;-75
2023/05/23 09:24:54;;;;;;;3.15;2.85;;;26.10;87.70;;;;;;5076420;28;20536;-77
2023/05/23 09:27:20;;;;;;;3.60;3.15;;;26.20;86.80;;;;;;5076510;28;20073;-75
2023/05/23 09:29:46;;;;;;;3.75;3.20;;;26.20;86.90;;;;;;5094799;28;20020;-75
2023/05/23 09:32:20;;;;;;;3.22;2.90;;;26.40;86.80;;;;;;5076445;28;20024;-75
2023/05/23 09:34:59;;;;;;;5.68;3.53;;;26.70;85.60;;;;;;5094501;28;20031;-75
2023/05/23 09:37:28;;;;;;;3.97;3.42;;;26.90;83.40;;;;;;5094445;28;20020;-75
2023/05/23 09:39:54;;;;;;;3.58;3.10;;;26.90;82.20;;;;;;5095423;28;20022;-76
2023/05/23 09:42:24;;;;;;;5.10;3.83;;;26.80;81.60;;;;;;5095401;28;20091;-74
2023/05/23 09:44:49;;;;;;;4.57;3.28;;;27.00;82.50;;;;;;5094306;28;20062;-76
2023/05/23 09:47:16;;;;;;;5.75;3.42;;;27.00;79.80;;;;;;5076563;28;20056;-76
2023/05/23 09:49:45;;;;;;;4.10;2.85;;;27.00;80.60;;;;;;5095956;28;20028;-77
2023/05/23 09:52:12;;;;;;;5.20;2.75;;;27.10;74.30;;;;;;5093280;28;20020;-75
2023/05/23 09:54:38;;;;;;;5.18;2.78;;;27.20;74.20;;;;;;5075894;28;20063;-75
2023/05/23 09:57:10;;;;;;;5.68;3.00;;;27.20;74.40;;;;;;5076384;28;20051;-75
2023/05/23 09:59:41;;;;;;;5.72;3.35;;;27.30;74.00;;;;;;5094098;28;20103;-75
2023/05/23 10:02:10;;;;;;;5.20;3.08;;;27.40;71.80;;;;;;5098296;22;20040;-78
2023/05/23 10:04:37;;;;;;;4.00;3.28;;;27.30;72.40;;;;;;5099635;28;20056;-78
2023/05/23 10:07:13;;;;;;;4.78;2.83;;;27.30;72.90;;;;;;5099775;28;20032;-78
2023/05/23 10:09:40;;;;;;;8.52;3.20;;;27.20;71.90;;;;;;5097946;28;20099;-79
2023/05/23 10:12:21;;;;;;;3.83;3.10;;;27.40;72.40;;;;;;5081041;28;20476;-78
2023/05/23 10:14:52;;;;;;;3.90;3.13;;;27.50;75.80;;;;;;5098899;28;20100;-79
2023/05/23 10:17:38;;;;;;;4.25;2.60;;;27.60;75.80;;;;;;5082379;28;20016;-79
2023/05/23 10:20:11;;;;;;;4.85;2.15;;;27.60;71.60;;;;;;5079902;28;20021;-78
2023/05/23 10:22:37;;;;;;;3.35;2.50;;;27.80;71.00;;;;;;5076256;28;20024;-76
2023/05/23 10:25:05;;;;;;;4.43;3.17;;;27.80;69.80;;;;;;5094325;28;20036;-78
2023/05/23 10:27:31;;;;;;;3.45;3.15;;;27.80;72.50;;;;;;5076064;28;20024;-78
2023/05/23 10:30:01;;;;;;;4.10;3.25;;;27.90;74.30;;;;;;5086396;28;20031;-77
2023/05/23 10:32:28;;;;;;;3.33;2.83;;;28.00;74.40;;;;;;5108154;28;20028;-79
2023/05/23 10:35:03;;;;;;;9.73;3.30;;;28.20;71.40;;;;;;5086757;28;20069;-78
2023/05/23 10:37:45;;;;;;;3.38;3.08;;;28.10;70.30;;;;;;5099284;28;20073;-78
2023/05/23 10:40:17;;;;;;;3.05;2.83;;;28.10;70.00;;;;;;5083965;28;20020;-79
2023/05/23 10:43:12;;;;;;;3.35;3.05;;;28.50;71.30;;;;;;5102066;28;20071;-78
2023/05/23 10:45:41;;;;;;;5.87;4.13;;;28.70;69.70;;;;;;5065189;28;20036;-78
2023/05/23 10:48:21;;;;;;;4.97;2.95;;;28.70;66.10;;;;;;5083229;28;20020;-78
2023/05/23 10:51:07;;;;;;;3.70;3.00;;;28.90;69.20;;;;;;5082630;28;20016;-78
2023/05/23 10:53:38;;;;;;;3.67;2.83;;;29.00;67.20;;;;;;5101468;28;20024;-79
2023/05/23 10:56:06;;;;;;;4.00;2.83;;;29.10;67.10;;;;;;5080852;28;20024;-78
2023/05/23 10:58:32;;;;;;;2.97;2.75;;;28.90;67.70;;;;;;5079586;28;20020;-78
2023/05/23 11:01:05;;;;;;;3.75;2.55;;;28.90;65.00;;;;;;5076725;28;20488;-77
2023/05/23 11:03:52;;;;;;;4.90;3.47;;;28.80;65.60;;;;;;5076965;28;20032;-78
2023/05/23 11:06:37;;;;;;;3.33;2.50;;;28.60;61.00;;;;;;5077640;28;20080;-79
2023/05/23 11:09:23;;;;;;;3.60;2.47;;;28.20;63.80;;;;;;5094710;28;20559;-79
2023/05/23 11:12:03;;;;;;;4.03;2.60;;;27.90;65.10;;;;;;5076302;28;20036;-78
2023/05/23 11:14:36;;;;;;;4.50;3.63;;;27.70;64.40;;;;;;5077110;28;20028;-78
2023/05/23 11:17:11;;;;;;;3.10;2.03;;;27.40;64.00;;;;;;5095149;28;20020;-79
2023/05/23 11:19:38;;;;;;;4.13;2.22;;;27.10;64.40;;;;;;5077154;28;20031;-79
2023/05/23 11:22:07;;;;;;;2.78;2.50;;;26.80;64.00;;;;;;5094359;28;20084;-79
2023/05/23 11:24:52;;;;;;;3.00;2.70;;;26.70;65.00;;;;;;5076781;28;20081;-79
2023/05/23 11:27:29;;;;;;;;;;;26.50;64.60;;;;;;5094852;28;20027;-77
2023/05/23 11:30:07;;;;;;;1.52;1.42;;;26.40;65.30;;;;;;5077615;28;19908;-78
2023/05/23 11:32:34;;;;;;;3.63;1.83;;;25.70;62.80;;;;;;5097024;28;20496;-78
2023/05/23 11:35:01;;;;;;;2.63;1.85;;;24.80;66.50;;;;;;5094691;28;20031;-78
2023/05/23 11:37:28;;;;;;;10.18;2.80;;;24.00;73.80;;;;;;5078048;28;20016;-78
2023/05/23 11:39:53;;;;;;;5.65;2.47;;;23.20;82.90;;;;;;5096926;28;20479;-78
2023/05/23 11:42:19;;;;;;;8.57;2.58;;;22.30;89.60;;;;;;5094864;28;20073;-77
2023/05/23 11:44:49;;;;;;;7.75;3.72;;;21.50;93.20;;;;;;5094904;28;20089;-78
2023/05/23 11:47:15;;;;;;;5.82;3.20;;;21.00;99.90;;;;;;5096328;28;20070;-78
2023/05/23 11:49:45;;;;;;;5.82;2.63;;;20.80;99.90;;;;;;5096268;28;20020;-78
2023/05/23 11:52:11;;;;;;;9.20;3.28;;;20.30;99.90;;;;;;5080091;28;20404;-78
2023/05/23 11:54:38;;;;;;;7.93;3.72;;;20.00;99.90;;;;;;5098909;28;20017;-79
2023/05/23 11:57:04;;;;;;;3.13;2.53;;;19.60;99.90;;;;;;5080525;28;20024;-78
2023/05/23 11:59:30;;;;;;;5.22;2.60;;;19.50;99.90;;;;;;5079359;28;20020;-78
2023/05/23 12:01:56;;;;;;;4.10;2.58;;;19.40;99.90;;;;;;5097266;28;20601;-79
2023/05/23 12:04:21;;;;;;;3.45;2.67;;;19.40;99.90;;;;;;5096657;28;20020;-78
2023/05/23 12:06:48;;;;;;;6.15;3.30;;;19.30;99.90;;;;;;5078772;28;20024;-78
2023/05/23 12:09:14;;;;;;;4.82;3.00;;;19.30;99.90;;;;;;5078759;28;20122;-78
2023/05/23 12:11:41;;;;;;;4.90;2.55;;;19.20;99.90;;;;;;5078880;28;20385;-78
2023/05/23 12:14:08;;;;;;;4.50;2.80;;;19.10;99.90;;;;;;5097125;28;20020;-78
2023/05/23 12:16:35;;;;;;;4.85;3.17;;;19.00;99.90;;;;;;5080402;28;20032;-78
2023/05/23 12:19:02;;;;;;;3.83;2.70;;;19.00;99.90;;;;;;5082083;28;20111;-79
2023/05/23 12:21:47;;;;;;;4.72;3.13;;;18.80;99.90;;;;;;5099609;28;20080;-79
2023/05/23 12:24:23;;;;;;;4.53;3.45;;;18.80;99.90;;;;;;5101452;28;20049;-78
2023/05/23 12:26:53;;;;;;;5.93;4.18;;;18.90;99.90;;;;;;5101541;28;20116;-79
2023/05/23 12:29:33;;;;;;;5.20;3.05;;;19.00;99.90;;;;;;5082707;28;20069;-78
2023/05/23 12:32:00;;;;;;;5.25;3.63;;;19.10;99.90;;;;;;5082854;28;20114;-79
2023/05/23 12:34:27;;;;;;;4.43;3.67;;;19.20;99.90;;;;;;5102272;28;20024;-78
2023/05/23 12:37:02;;;;;;;8.48;3.28;;;19.40;99.90;;;;;;5102054;28;20051;-81
2023/05/23 12:39:28;;;;;;;3.50;3.20;;;19.70;99.90;;;;;;5113382;28;20020;-79
2023/05/23 12:42:08;;;;;;;5.40;3.75;;;20.00;99.90;;;;;;5092710;28;20024;-79
2023/05/23 12:44:34;;;;;;;5.40;4.30;;;20.50;99.90;;;;;;5099835;28;20797;-79
2023/05/23 12:47:00;;;;;;;3.65;2.90;;;20.70;99.90;;;;;;5101081;28;20074;-80
2023/05/23 12:49:26;;;;;;;5.50;3.42;;;20.80;99.90;;;;;;5097768;28;20055;-79